Terminal Aerodrome Forecast
Issued by NWS

Home | Current Version | Previous Version | Text Only | Print | Product List | Glossary Off
Versions: 1 2 3 4 5 6 7 8 9 10 11 12 13 14 15 16

504
FTUS42 KMHX 061141
TAFPGV
TAF
KPGV 061141Z 0612/0712 07010KT 5SM -RA SCT007 OVC025
     FM061400 07010G15KT 3SM RA OVC006
     FM061900 35010G15KT P6SM VCSH SCT003 OVC006
     FM062200 32010G15KT P6SM SCT003 BKN007
     FM070800 31004KT 5SM BR SCT003 BKN007
      AMD LTD TO CLD VIS AND WIND=

USA.gov is the U.S. government's official web portal to all federal, state and local government web resources and services.